createdAt,value
2022-11-17T00:00:39.732Z,9.80
2022-11-17T00:03:07.015Z,9.80
2022-11-17T00:05:35.860Z,9.80
2022-11-17T00:08:03.113Z,9.80
2022-11-17T00:10:30.391Z,9.80
2022-11-17T00:13:16.242Z,9.70
2022-11-17T00:15:44.581Z,9.70
2022-11-17T00:18:30.258Z,9.70
2022-11-17T00:21:16.425Z,9.70
2022-11-17T00:23:50.365Z,9.60
2022-11-17T00:26:22.858Z,9.70
2022-11-17T00:28:57.638Z,9.60
2022-11-17T00:31:45.395Z,9.60
2022-11-17T00:34:16.228Z,9.70
2022-11-17T00:36:46.281Z,9.80
2022-11-17T00:39:15.095Z,9.80
2022-11-17T00:41:42.780Z,9.70
2022-11-17T00:44:10.759Z,9.50
2022-11-17T00:46:38.808Z,9.50
2022-11-17T00:49:07.222Z,9.50
2022-11-17T00:51:35.159Z,9.40
2022-11-17T00:54:02.653Z,9.50
2022-11-17T00:56:30.160Z,9.50
2022-11-17T00:58:57.879Z,9.50
2022-11-17T01:01:25.830Z,9.60
2022-11-17T01:04:03.368Z,9.50
2022-11-17T01:06:40.893Z,9.40
2022-11-17T01:09:16.556Z,9.50
2022-11-17T01:11:44.252Z,9.50
2022-11-17T01:14:14.136Z,9.50
2022-11-17T01:16:41.872Z,9.50
2022-11-17T01:19:11.926Z,9.50
2022-11-17T01:21:39.324Z,9.40
2022-11-17T01:24:06.911Z,9.40
2022-11-17T01:26:36.287Z,9.40
2022-11-17T01:29:04.737Z,9.50
2022-11-17T01:31:34.922Z,9.50
2022-11-17T01:34:02.282Z,9.50
2022-11-17T01:36:57.676Z,9.60
2022-11-17T01:39:26.847Z,9.70
2022-11-17T01:41:55.017Z,9.70
2022-11-17T01:44:49.669Z,9.70
2022-11-17T01:47:26.479Z,9.60
2022-11-17T01:50:20.070Z,9.50
2022-11-17T01:52:50.421Z,9.50
2022-11-17T01:55:21.372Z,9.40
2022-11-17T01:57:59.402Z,9.40
2022-11-17T02:00:27.490Z,9.40
2022-11-17T02:02:54.800Z,9.30
2022-11-17T02:05:21.966Z,9.30
2022-11-17T02:07:52.626Z,9.30
2022-11-17T02:10:20.024Z,9.30
2022-11-17T02:12:48.813Z,9.30
2022-11-17T02:15:16.252Z,9.30
2022-11-17T02:17:43.905Z,9.20
2022-11-17T02:20:23.567Z,9.20
2022-11-17T02:23:21.738Z,9.30
2022-11-17T02:26:07.659Z,9.30
2022-11-17T02:28:38.124Z,9.40
2022-11-17T02:31:29.781Z,9.30
2022-11-17T02:34:21.602Z,9.30
2022-11-17T02:36:58.859Z,9.20
2022-11-17T02:39:47.280Z,9.20
2022-11-17T02:42:57.984Z,9.10
2022-11-17T02:45:33.421Z,9.10
2022-11-17T02:48:05.523Z,9.00
2022-11-17T02:50:36.360Z,9.00
2022-11-17T02:53:04.756Z,9.00
2022-11-17T02:55:35.369Z,8.90
2022-11-17T02:58:02.592Z,8.90
2022-11-17T03:00:34.331Z,9.00
2022-11-17T03:03:18.179Z,9.00
2022-11-17T03:06:24.767Z,8.90
2022-11-17T03:09:04.229Z,8.90
2022-11-17T03:11:58.412Z,8.80
2022-11-17T03:14:50.216Z,8.70
2022-11-17T03:17:59.757Z,8.60
2022-11-17T03:20:47.567Z,8.60
2022-11-17T03:23:21.256Z,8.60
2022-11-17T03:25:54.816Z,8.60
2022-11-17T03:28:27.077Z,8.60
2022-11-17T03:30:55.924Z,8.60
2022-11-17T03:33:25.580Z,8.60
2022-11-17T03:35:58.604Z,8.60
2022-11-17T03:38:29.768Z,8.60
2022-11-17T03:41:03.152Z,8.50
2022-11-17T03:43:32.451Z,8.60
2022-11-17T03:46:07.256Z,8.60
2022-11-17T03:48:50.973Z,8.60
2022-11-17T03:51:26.142Z,8.60
2022-11-17T03:53:54.670Z,8.60
2022-11-17T03:56:54.095Z,8.60
2022-11-17T03:59:33.767Z,8.60
2022-11-17T04:02:01.043Z,8.60
2022-11-17T04:04:48.350Z,8.70
2022-11-17T04:07:15.663Z,8.60
2022-11-17T04:09:43.046Z,8.60
2022-11-17T04:12:28.988Z,8.70
2022-11-17T04:15:14.946Z,8.70
2022-11-17T04:17:42.227Z,8.60
2022-11-17T04:20:10.121Z,8.60
2022-11-17T04:22:37.326Z,8.60
2022-11-17T04:25:04.873Z,8.60
2022-11-17T04:27:50.685Z,8.60
2022-11-17T04:30:18.002Z,8.60
2022-11-17T04:32:45.241Z,8.60
2022-11-17T04:35:12.470Z,8.60
2022-11-17T04:37:39.678Z,8.60
2022-11-17T04:40:07.814Z,8.50
2022-11-17T04:42:35.019Z,8.50
2022-11-17T04:45:02.305Z,8.50
2022-11-17T04:47:29.543Z,8.50
2022-11-17T04:49:56.758Z,8.50
2022-11-17T04:52:29.489Z,8.60
2022-11-17T04:54:57.176Z,8.60
2022-11-17T04:57:24.574Z,8.60
2022-11-17T04:59:51.867Z,8.60
2022-11-17T05:02:19.174Z,8.70
2022-11-17T05:04:55.893Z,8.70
2022-11-17T05:07:24.207Z,8.80
2022-11-17T05:09:51.441Z,8.80
2022-11-17T05:12:37.452Z,8.70
2022-11-17T05:15:05.127Z,8.70
2022-11-17T05:17:32.424Z,8.70
2022-11-17T05:19:59.690Z,8.70
2022-11-17T05:22:45.572Z,8.70
2022-11-17T05:25:12.774Z,8.80
2022-11-17T05:27:40.092Z,8.70
2022-11-17T05:30:08.450Z,8.70
2022-11-17T05:32:35.713Z,8.70
2022-11-17T05:35:02.974Z,8.60
2022-11-17T05:37:30.191Z,8.60
2022-11-17T05:39:57.452Z,8.70
2022-11-17T05:42:24.712Z,8.70
2022-11-17T05:44:52.035Z,8.70
2022-11-17T05:47:19.296Z,8.70
2022-11-17T05:49:46.555Z,8.70
2022-11-17T05:52:13.822Z,8.60
2022-11-17T05:54:41.161Z,8.70
2022-11-17T05:57:16.737Z,8.70
2022-11-17T05:59:46.952Z,8.60
2022-11-17T06:02:21.926Z,8.60
2022-11-17T06:04:50.186Z,8.60
2022-11-17T06:07:19.421Z,8.60
2022-11-17T06:09:47.668Z,8.70
2022-11-17T06:12:15.480Z,8.80
2022-11-17T06:14:43.053Z,8.80
2022-11-17T06:17:27.568Z,8.80
2022-11-17T06:20:02.899Z,8.90
2022-11-17T06:22:30.687Z,8.90
2022-11-17T06:24:58.619Z,8.90
2022-11-17T06:27:26.643Z,9.00
2022-11-17T06:29:55.310Z,9.00
2022-11-17T06:32:22.845Z,9.00
2022-11-17T06:34:55.680Z,9.00
2022-11-17T06:37:25.262Z,9.00
2022-11-17T06:39:52.861Z,9.00
2022-11-17T06:42:40.071Z,9.10
2022-11-17T06:45:08.043Z,9.10
2022-11-17T06:47:35.272Z,9.20
2022-11-17T06:50:02.860Z,9.30
2022-11-17T06:52:30.120Z,9.30
2022-11-17T06:54:57.458Z,9.10
2022-11-17T06:57:24.804Z,9.10
2022-11-17T06:59:52.616Z,9.00
2022-11-17T07:02:20.458Z,9.00
2022-11-17T07:04:47.775Z,9.10
2022-11-17T07:07:15.071Z,9.20
2022-11-17T07:09:42.458Z,9.20
2022-11-17T07:12:09.777Z,9.20
2022-11-17T07:14:37.243Z,9.20
2022-11-17T07:17:04.590Z,9.20
2022-11-17T07:19:31.852Z,9.30
2022-11-17T07:21:59.219Z,9.40
2022-11-17T07:24:26.511Z,9.50
2022-11-17T07:26:54.193Z,9.50
2022-11-17T07:29:21.554Z,9.60
2022-11-17T07:31:48.875Z,9.50
2022-11-17T07:34:16.397Z,9.50
2022-11-17T07:36:43.652Z,9.50
2022-11-17T07:39:10.966Z,9.60
2022-11-17T07:41:38.484Z,9.50
2022-11-17T07:44:06.021Z,9.50
2022-11-17T07:46:33.482Z,9.40
2022-11-17T07:49:00.871Z,9.50
2022-11-17T07:51:28.352Z,9.50
2022-11-17T07:53:55.846Z,9.50
2022-11-17T07:56:25.618Z,9.40
2022-11-17T07:58:54.498Z,9.50
2022-11-17T08:01:21.823Z,9.50
2022-11-17T08:03:49.294Z,9.50
2022-11-17T08:06:17.039Z,9.50
2022-11-17T08:08:44.412Z,9.60
2022-11-17T08:11:12.968Z,9.60
2022-11-17T08:13:41.429Z,9.70
2022-11-17T08:16:10.246Z,9.70
2022-11-17T08:18:38.405Z,9.70
2022-11-17T08:21:14.721Z,9.80
2022-11-17T08:23:42.584Z,9.90
2022-11-17T08:26:11.418Z,10.10
2022-11-17T08:28:39.319Z,10.10
2022-11-17T08:31:08.075Z,10.30
2022-11-17T08:33:36.069Z,10.40
2022-11-17T08:36:04.759Z,10.40
2022-11-17T08:38:32.292Z,10.60
2022-11-17T08:41:03.367Z,10.80
2022-11-17T08:43:31.237Z,11.00
2022-11-17T08:45:58.754Z,11.10
2022-11-17T08:48:26.221Z,11.10
2022-11-17T08:50:53.607Z,11.00
2022-11-17T08:53:23.409Z,11.10
2022-11-17T08:55:51.995Z,11.40
2022-11-17T08:58:19.410Z,11.90
2022-11-17T09:00:47.604Z,12.40
2022-11-17T09:03:15.431Z,12.80
2022-11-17T09:05:45.371Z,13.50
2022-11-17T09:11:10.158Z,14.00
2022-11-17T09:13:38.759Z,14.00
2022-11-17T09:16:09.096Z,14.10
2022-11-17T09:18:39.014Z,14.30
2022-11-17T09:21:10.381Z,14.40
2022-11-17T09:23:38.364Z,14.50
2022-11-17T09:26:08.048Z,14.60
2022-11-17T09:28:35.799Z,14.80
2022-11-17T09:31:21.868Z,15.00
2022-11-17T09:33:49.332Z,15.10
2022-11-17T09:36:17.271Z,14.80
2022-11-17T09:38:44.890Z,14.80
2022-11-17T09:41:24.269Z,15.00
2022-11-17T09:44:03.869Z,14.70
2022-11-17T09:47:03.168Z,14.10
2022-11-17T09:49:34.840Z,13.60
2022-11-17T09:52:34.834Z,13.20
2022-11-17T09:55:29.714Z,12.80
2022-11-17T09:58:15.384Z,12.60
2022-11-17T10:00:47.293Z,12.30
2022-11-17T10:03:25.018Z,12.30
2022-11-17T10:05:53.423Z,12.10
2022-11-17T10:08:37.750Z,12.10
2022-11-17T10:11:31.611Z,12.20
2022-11-17T10:14:15.841Z,12.20
2022-11-17T10:16:58.155Z,12.30
2022-11-17T10:19:27.963Z,12.20
2022-11-17T10:22:02.371Z,12.10
2022-11-17T10:24:44.255Z,12.10
2022-11-17T10:27:17.655Z,12.00
2022-11-17T10:30:01.886Z,12.00
2022-11-17T10:32:34.152Z,12.00
2022-11-17T10:35:18.262Z,12.00
2022-11-17T10:37:52.680Z,12.10
2022-11-17T10:40:25.346Z,12.20
2022-11-17T10:43:14.350Z,12.20
2022-11-17T10:46:09.702Z,12.30
2022-11-17T10:48:39.329Z,12.40
2022-11-17T10:51:22.478Z,12.50
2022-11-17T10:54:08.840Z,12.50
2022-11-17T10:56:43.663Z,12.50
2022-11-17T10:59:21.719Z,12.70
2022-11-17T11:01:52.930Z,12.90
2022-11-17T11:04:46.508Z,13.00
2022-11-17T11:07:24.186Z,12.90
2022-11-17T11:10:16.329Z,12.90
2022-11-17T11:13:02.665Z,12.90
2022-11-17T11:15:39.184Z,13.00
2022-11-17T11:18:16.111Z,13.10
2022-11-17T11:20:59.778Z,13.10
2022-11-17T11:23:56.081Z,13.10
2022-11-17T11:26:30.053Z,13.20
2022-11-17T11:29:05.399Z,13.40
2022-11-17T11:32:04.708Z,13.40
2022-11-17T11:34:47.087Z,13.20
2022-11-17T11:37:16.187Z,13.20
2022-11-17T11:40:09.846Z,13.20
2022-11-17T11:42:50.340Z,13.30
2022-11-17T11:56:42.717Z,13.30
2022-11-17T11:59:19.361Z,13.70
2022-11-17T12:02:02.771Z,13.90
2022-11-17T12:04:30.071Z,14.00
2022-11-17T12:07:33.138Z,14.20
2022-11-17T12:10:12.913Z,14.40
2022-11-17T12:12:44.266Z,14.50
2022-11-17T12:15:20.763Z,14.40
2022-11-17T12:18:11.560Z,14.40
2022-11-17T12:20:38.792Z,14.30
2022-11-17T12:23:47.700Z,14.20
2022-11-17T12:26:29.718Z,14.30
2022-11-17T12:29:27.016Z,14.40
2022-11-17T12:32:00.055Z,14.30
2022-11-17T12:34:30.649Z,14.30
2022-11-17T12:37:05.927Z,14.20
2022-11-17T12:39:59.303Z,14.40
2022-11-17T12:42:28.123Z,14.40
2022-11-17T12:45:10.732Z,14.30
2022-11-17T12:47:59.390Z,14.20
2022-11-17T12:51:26.001Z,14.10
2022-11-17T12:54:04.446Z,14.10
2022-11-17T12:56:40.765Z,14.20
2022-11-17T12:59:16.162Z,14.20
2022-11-17T13:02:15.526Z,14.10
2022-11-17T13:04:50.955Z,14.10
2022-11-17T13:07:23.937Z,14.10
2022-11-17T13:09:53.274Z,14.20
2022-11-17T13:12:26.228Z,14.20
2022-11-17T13:14:59.426Z,14.20
2022-11-17T13:17:32.986Z,14.20
2022-11-17T13:20:25.231Z,14.40
2022-11-17T13:23:00.817Z,14.40
2022-11-17T13:25:28.313Z,14.30
2022-11-17T13:28:01.240Z,14.20
2022-11-17T13:30:32.858Z,14.20
2022-11-17T13:33:03.093Z,14.30
2022-11-17T13:35:33.361Z,14.40
2022-11-17T13:38:02.352Z,14.50
2022-11-17T13:40:30.681Z,14.50
2022-11-17T13:42:58.938Z,14.40
2022-11-17T13:45:27.673Z,14.40
2022-11-17T13:47:55.325Z,14.30
2022-11-17T13:50:31.446Z,14.20
2022-11-17T13:53:00.447Z,14.10
2022-11-17T13:55:28.359Z,14.00
2022-11-17T13:58:02.858Z,13.90
2022-11-17T14:00:31.726Z,13.80
2022-11-17T14:03:04.762Z,13.70
2022-11-17T14:05:33.461Z,13.70
2022-11-17T14:08:31.868Z,13.70
2022-11-17T14:11:26.216Z,13.60
2022-11-17T14:13:59.049Z,13.50
2022-11-17T14:16:37.521Z,13.40
2022-11-17T14:19:06.420Z,13.40
2022-11-17T14:21:33.869Z,13.40
2022-11-17T14:24:06.435Z,13.40
2022-11-17T14:26:34.040Z,13.30
2022-11-17T14:29:04.821Z,13.30
2022-11-17T14:31:32.154Z,13.30
2022-11-17T14:33:59.856Z,13.30
2022-11-17T14:36:27.401Z,13.20
2022-11-17T14:38:54.923Z,13.20
2022-11-17T14:41:22.265Z,13.20
2022-11-17T14:43:51.194Z,13.10
2022-11-17T14:46:24.559Z,13.10
2022-11-17T14:48:52.649Z,13.00
2022-11-17T14:51:20.783Z,13.00
2022-11-17T14:53:48.584Z,13.00
2022-11-17T14:56:18.123Z,13.00
2022-11-17T14:58:47.188Z,12.90
2022-11-17T15:01:19.888Z,12.90
2022-11-17T15:03:47.341Z,12.90
2022-11-17T15:06:19.371Z,12.80
2022-11-17T15:08:48.361Z,12.70
2022-11-17T15:11:17.880Z,12.70
2022-11-17T15:13:45.172Z,12.70
2022-11-17T15:16:12.531Z,12.70
2022-11-17T15:18:39.796Z,12.70
2022-11-17T15:21:09.627Z,12.60
2022-11-17T15:23:38.527Z,12.60
2022-11-17T15:26:08.338Z,12.60
2022-11-17T15:28:35.786Z,12.60
2022-11-17T15:31:10.338Z,12.50
2022-11-17T15:33:40.614Z,12.50
2022-11-17T15:36:10.283Z,12.50
2022-11-17T15:38:38.690Z,12.50
2022-11-17T15:41:07.468Z,12.60
2022-11-17T15:43:37.147Z,12.60
2022-11-17T15:46:16.705Z,12.50
2022-11-17T15:48:45.981Z,12.60
2022-11-17T15:51:20.963Z,12.50
2022-11-17T15:53:49.974Z,12.50
2022-11-17T15:56:23.004Z,12.50
2022-11-17T15:58:56.682Z,12.40
2022-11-17T16:01:24.829Z,12.30
2022-11-17T16:03:56.888Z,12.30
2022-11-17T16:06:24.297Z,12.30
2022-11-17T16:08:51.632Z,12.30
2022-11-17T16:11:19.254Z,12.30
2022-11-17T16:13:46.886Z,12.30
2022-11-17T16:16:15.716Z,12.30
2022-11-17T16:18:43.101Z,12.30
2022-11-17T16:21:12.583Z,12.30
2022-11-17T16:23:48.582Z,12.30
2022-11-17T16:26:17.644Z,12.40
2022-11-17T16:28:46.716Z,12.40
2022-11-17T16:31:22.972Z,12.40
2022-11-17T16:33:51.096Z,12.40
2022-11-17T16:36:20.268Z,12.40
2022-11-17T16:39:01.325Z,12.40
2022-11-17T16:41:32.686Z,12.40
2022-11-17T16:44:00.899Z,12.40
2022-11-17T16:46:30.558Z,12.40
2022-11-17T16:49:02.244Z,12.50
2022-11-17T16:51:30.173Z,12.50
2022-11-17T16:54:03.298Z,12.50
2022-11-17T16:56:31.647Z,12.50
2022-11-17T16:58:59.231Z,12.50
2022-11-17T17:01:30.750Z,12.40
2022-11-17T17:04:00.508Z,12.50
2022-11-17T17:06:28.241Z,12.50
2022-11-17T17:09:01.110Z,12.50
2022-11-17T17:11:31.438Z,12.50
2022-11-17T17:14:00.310Z,12.40
2022-11-17T17:16:27.624Z,12.40
2022-11-17T17:19:00.022Z,12.40
2022-11-17T17:21:28.955Z,12.50
2022-11-17T17:23:56.997Z,12.50
2022-11-17T17:26:26.483Z,12.50
2022-11-17T17:28:55.831Z,12.50
2022-11-17T17:31:24.425Z,12.50
2022-11-17T17:33:52.336Z,12.50
2022-11-17T17:36:25.009Z,12.50
2022-11-17T17:38:56.276Z,12.50
2022-11-17T17:41:29.435Z,12.50
2022-11-17T17:43:59.531Z,12.50
2022-11-17T17:46:29.753Z,12.50
2022-11-17T17:48:58.092Z,12.50
2022-11-17T17:51:27.334Z,12.40
2022-11-17T17:53:57.915Z,12.30
2022-11-17T17:56:25.506Z,12.40
2022-11-17T17:58:56.688Z,12.40
2022-11-17T18:01:29.275Z,12.50
2022-11-17T18:04:01.127Z,12.50
2022-11-17T18:06:28.657Z,12.60
2022-11-17T18:08:57.796Z,12.60
2022-11-17T18:11:25.958Z,12.60
2022-11-17T18:13:54.336Z,12.60
2022-11-17T18:16:27.087Z,12.60
2022-11-17T18:19:06.358Z,12.60
2022-11-17T18:21:34.002Z,12.60
2022-11-17T18:24:02.383Z,12.60
2022-11-17T18:26:31.916Z,12.60
2022-11-17T18:29:00.869Z,12.50
2022-11-17T18:31:30.393Z,12.50
2022-11-17T18:33:59.909Z,12.60
2022-11-17T18:36:28.819Z,12.60
2022-11-17T18:38:58.615Z,12.50
2022-11-17T18:41:27.378Z,12.40
2022-11-17T18:43:55.342Z,12.40
2022-11-17T18:46:25.790Z,12.50
2022-11-17T18:48:54.026Z,12.50
2022-11-17T18:51:24.262Z,12.50
2022-11-17T18:53:54.544Z,12.40
2022-11-17T18:56:25.248Z,12.40
2022-11-17T18:58:52.852Z,12.40
2022-11-17T19:01:25.704Z,12.40
2022-11-17T19:03:54.941Z,12.40
2022-11-17T19:06:24.883Z,12.40
2022-11-17T19:08:52.906Z,12.40
2022-11-17T19:11:22.045Z,12.50
2022-11-17T19:13:49.754Z,12.40
2022-11-17T19:16:19.935Z,12.40
2022-11-17T19:18:49.000Z,12.40
2022-11-17T19:21:21.836Z,12.30
2022-11-17T19:23:51.843Z,12.20
2022-11-17T19:26:31.182Z,12.20
2022-11-17T19:29:15.999Z,12.20
2022-11-17T19:31:45.307Z,12.30
2022-11-17T19:34:12.941Z,12.50
2022-11-17T19:36:41.703Z,12.50
2022-11-17T19:39:11.485Z,12.40
2022-11-17T19:41:39.958Z,12.40
2022-11-17T19:44:08.740Z,12.30
2022-11-17T19:46:36.401Z,12.30
2022-11-17T19:49:05.830Z,12.30
2022-11-17T19:51:36.632Z,12.40
2022-11-17T19:54:07.853Z,12.30
2022-11-17T19:56:35.675Z,12.30
2022-11-17T19:59:03.546Z,12.30
2022-11-17T20:01:31.873Z,12.20
2022-11-17T20:04:00.574Z,12.30
2022-11-17T20:06:33.901Z,12.30
2022-11-17T20:09:01.288Z,12.30
2022-11-17T20:11:28.985Z,12.20
2022-11-17T20:13:56.586Z,12.20
2022-11-17T20:16:26.260Z,12.10
2022-11-17T20:18:55.755Z,12.10
2022-11-17T20:21:24.213Z,12.10
2022-11-17T20:23:51.831Z,12.10
2022-11-17T20:26:24.715Z,12.10
2022-11-17T20:28:53.228Z,12.10
2022-11-17T20:31:24.158Z,12.10
2022-11-17T20:33:53.763Z,12.10
2022-11-17T20:36:21.846Z,12.10
2022-11-17T20:39:00.743Z,12.10
2022-11-17T20:41:28.510Z,12.10
2022-11-17T20:43:57.613Z,12.10
2022-11-17T20:46:25.330Z,12.10
2022-11-17T20:48:52.823Z,12.10
2022-11-17T20:51:22.436Z,12.00
2022-11-17T20:53:52.978Z,12.00
2022-11-17T20:56:23.668Z,12.00
2022-11-17T20:58:51.093Z,12.00
2022-11-17T21:01:21.345Z,12.00
2022-11-17T21:03:49.596Z,12.10
2022-11-17T21:06:18.209Z,12.10
2022-11-17T21:08:46.473Z,12.00
2022-11-17T21:11:36.709Z,12.10
2022-11-17T21:14:09.516Z,12.10
2022-11-17T21:16:38.662Z,12.10
2022-11-17T21:19:06.939Z,12.10
2022-11-17T21:21:37.714Z,12.00
2022-11-17T21:24:05.775Z,12.10
2022-11-17T21:26:34.058Z,12.10
2022-11-17T21:29:06.410Z,12.00
2022-11-17T21:31:36.445Z,12.00
2022-11-17T21:34:09.141Z,12.00
2022-11-17T21:36:36.545Z,12.00
2022-11-17T21:39:04.421Z,12.00
2022-11-17T21:41:38.698Z,12.00
2022-11-17T21:44:06.351Z,11.90
2022-11-17T21:46:35.186Z,12.00
2022-11-17T21:49:02.940Z,12.00
2022-11-17T21:51:33.717Z,12.00
2022-11-17T21:54:04.632Z,12.00
2022-11-17T21:56:32.328Z,12.00
2022-11-17T21:59:02.380Z,12.00
2022-11-17T22:01:30.932Z,12.00
2022-11-17T22:04:01.648Z,12.00
2022-11-17T22:06:29.900Z,12.00
2022-11-17T22:09:24.299Z,12.00
2022-11-17T22:11:52.142Z,12.10
2022-11-17T22:14:20.301Z,12.00
2022-11-17T22:16:49.739Z,12.10
2022-11-17T22:19:18.428Z,12.10
2022-11-17T22:21:48.277Z,12.10
2022-11-17T22:24:15.783Z,12.10
2022-11-17T22:26:44.255Z,12.00
2022-11-17T22:29:14.119Z,11.90
2022-11-17T22:31:42.223Z,12.00
2022-11-17T22:34:09.637Z,12.00
2022-11-17T22:36:37.494Z,11.90
2022-11-17T22:39:05.433Z,11.90
2022-11-17T22:41:32.733Z,11.80
2022-11-17T22:44:00.443Z,11.90
2022-11-17T22:46:28.661Z,11.90
2022-11-17T22:48:56.523Z,11.90
2022-11-17T22:51:43.264Z,11.80
2022-11-17T22:54:10.513Z,11.80
2022-11-17T22:56:37.775Z,11.80
2022-11-17T22:59:05.255Z,11.80
2022-11-17T23:01:32.566Z,11.80
2022-11-17T23:04:02.413Z,11.80
2022-11-17T23:06:30.793Z,11.80
2022-11-17T23:08:58.975Z,11.80
2022-11-17T23:11:36.917Z,11.80
2022-11-17T23:14:07.837Z,11.80
2022-11-17T23:16:36.803Z,11.80
2022-11-17T23:19:05.609Z,11.90
2022-11-17T23:21:33.417Z,11.90
2022-11-17T23:24:01.399Z,11.90
2022-11-17T23:26:28.955Z,11.90
2022-11-17T23:28:58.294Z,11.90
2022-11-17T23:31:28.010Z,11.90
2022-11-17T23:33:55.786Z,12.00
2022-11-17T23:36:23.839Z,11.90
2022-11-17T23:38:52.066Z,12.00
2022-11-17T23:41:20.400Z,12.10
2022-11-17T23:43:52.305Z,12.00
2022-11-17T23:46:26.340Z,12.00
2022-11-17T23:48:54.737Z,12.00
2022-11-17T23:51:23.704Z,11.90
2022-11-17T23:53:51.604Z,11.90
2022-11-17T23:56:22.634Z,11.90
2022-11-17T23:58:59.136Z,11.90
